GKPFL EGKK-EHAM
Flight info
| Callsign | GKPFL |
|---|---|
| Flight time | N/A |
| Altitude | 29000 |
| Route | FRANE M604 GASBA M197 REDFA |
| Aircraft | CL60/M-SBDE1E2E3FGHIJ4J5J7M3RWXYZ/LB1V1D1 |
Departure
| Time | N/A |
|---|---|
| Airport | London Gatwick Airport (EGKK) |
Arrival
| Time | 2026-05-06 11:35 |
|---|---|
| Airport | Amsterdam Airport Schiphol (EHAM) |
| Time | Latitude | Longitude | Altitude | Speed | Heading |
|---|---|---|---|---|---|
| 2026-05-06 11:12 | 52.04328 | 2.02002 | 28442 ft | 458 kts | 77° |
| 2026-05-06 11:12 | 52.05093 | 2.07006 | 27876 ft | 448 kts | 77° |
| 2026-05-06 11:13 | 52.05823 | 2.11792 | 27324 ft | 439 kts | 77° |
| 2026-05-06 11:13 | 52.06559 | 2.16632 | 26760 ft | 431 kts | 77° |
| 2026-05-06 11:13 | 52.07262 | 2.21270 | 26217 ft | 423 kts | 76° |
| 2026-05-06 11:13 | 52.07952 | 2.25831 | 25674 ft | 416 kts | 76° |
| 2026-05-06 11:14 | 52.08640 | 2.30386 | 25127 ft | 410 kts | 76° |
| 2026-05-06 11:14 | 52.09307 | 2.34818 | 24592 ft | 408 kts | 76° |
| 2026-05-06 11:14 | 52.09972 | 2.39251 | 24063 ft | 408 kts | 76° |
| 2026-05-06 11:14 | 52.10649 | 2.43781 | 23513 ft | 405 kts | 76° |
| 2026-05-06 11:15 | 52.11367 | 2.48163 | 22978 ft | 401 kts | 69° |
| 2026-05-06 11:15 | 52.12631 | 2.52144 | 22508 ft | 396 kts | 58° |
| 2026-05-06 11:15 | 52.14006 | 2.55911 | 22235 ft | 393 kts | 59° |
| 2026-05-06 11:15 | 52.15404 | 2.59780 | 21877 ft | 394 kts | 59° |
| 2026-05-06 11:16 | 52.16774 | 2.63578 | 21534 ft | 393 kts | 59° |
| 2026-05-06 11:16 | 52.18154 | 2.67407 | 21175 ft | 390 kts | 59° |
| 2026-05-06 11:16 | 52.19534 | 2.71239 | 20825 ft | 387 kts | 59° |
| 2026-05-06 11:16 | 52.20891 | 2.75013 | 20479 ft | 385 kts | 59° |
| 2026-05-06 11:17 | 52.22221 | 2.78717 | 20131 ft | 383 kts | 59° |
| 2026-05-06 11:17 | 52.23557 | 2.82443 | 19796 ft | 380 kts | 59° |
| 2026-05-06 11:17 | 52.24889 | 2.86160 | 19451 ft | 378 kts | 59° |
| 2026-05-06 11:17 | 52.26195 | 2.89813 | 19108 ft | 375 kts | 59° |
| 2026-05-06 11:18 | 52.27511 | 2.93495 | 18776 ft | 372 kts | 59° |
| 2026-05-06 11:18 | 52.28808 | 2.97130 | 18441 ft | 370 kts | 59° |
| 2026-05-06 11:18 | 52.30082 | 3.00707 | 18114 ft | 369 kts | 59° |
| 2026-05-06 11:18 | 52.31378 | 3.04347 | 17784 ft | 367 kts | 59° |
| 2026-05-06 11:19 | 52.32642 | 3.07904 | 17459 ft | 365 kts | 59° |
| 2026-05-06 11:19 | 52.33918 | 3.11497 | 17133 ft | 363 kts | 59° |
| 2026-05-06 11:19 | 52.35166 | 3.15021 | 16827 ft | 362 kts | 59° |
| 2026-05-06 11:19 | 52.36434 | 3.18602 | 16510 ft | 361 kts | 59° |
| 2026-05-06 11:20 | 52.37679 | 3.22124 | 16160 ft | 358 kts | 59° |
| 2026-05-06 11:20 | 52.38923 | 3.25634 | 15841 ft | 356 kts | 58° |
| 2026-05-06 11:20 | 52.40499 | 3.28731 | 15555 ft | 352 kts | 40° |
| 2026-05-06 11:20 | 52.42260 | 3.31499 | 15256 ft | 351 kts | 51° |
| 2026-05-06 11:21 | 52.43346 | 3.35073 | 14903 ft | 351 kts | 76° |
| 2026-05-06 11:21 | 52.43414 | 3.39016 | 14643 ft | 349 kts | 101° |
| 2026-05-06 11:21 | 52.42654 | 3.42770 | 14469 ft | 346 kts | 111° |
| 2026-05-06 11:21 | 52.41750 | 3.46451 | 14266 ft | 352 kts | 112° |
| 2026-05-06 11:22 | 52.40847 | 3.50108 | 14008 ft | 346 kts | 112° |
| 2026-05-06 11:22 | 52.39941 | 3.53776 | 13734 ft | 349 kts | 112° |
| 2026-05-06 11:22 | 52.39037 | 3.57418 | 13535 ft | 345 kts | 112° |
| 2026-05-06 11:22 | 52.38121 | 3.61096 | 13305 ft | 346 kts | 112° |
| 2026-05-06 11:23 | 52.37225 | 3.64673 | 13097 ft | 344 kts | 112° |
| 2026-05-06 11:23 | 52.36311 | 3.68312 | 12876 ft | 343 kts | 112° |
| 2026-05-06 11:23 | 52.35401 | 3.71920 | 12658 ft | 341 kts | 112° |
| 2026-05-06 11:23 | 52.34501 | 3.75475 | 12453 ft | 340 kts | 112° |
| 2026-05-06 11:24 | 52.33589 | 3.79057 | 12239 ft | 338 kts | 112° |
| 2026-05-06 11:24 | 52.32686 | 3.82589 | 12035 ft | 337 kts | 112° |
| 2026-05-06 11:24 | 52.31788 | 3.86083 | 11821 ft | 336 kts | 112° |
| 2026-05-06 11:24 | 52.30880 | 3.89601 | 11626 ft | 333 kts | 112° |
| 2026-05-06 11:25 | 52.29989 | 3.93042 | 11420 ft | 328 kts | 112° |
| 2026-05-06 11:25 | 52.29098 | 3.96464 | 11221 ft | 323 kts | 112° |
| 2026-05-06 11:25 | 52.28228 | 3.99788 | 11041 ft | 317 kts | 112° |
| 2026-05-06 11:25 | 52.27364 | 4.03074 | 10845 ft | 312 kts | 112° |
| 2026-05-06 11:26 | 52.26519 | 4.06272 | 10650 ft | 306 kts | 112° |
| 2026-05-06 11:26 | 52.25685 | 4.09405 | 10821 ft | 293 kts | 112° |
| 2026-05-06 11:26 | 52.24863 | 4.12491 | 10884 ft | 300 kts | 112° |
| 2026-05-06 11:26 | 52.24036 | 4.15585 | 10935 ft | 296 kts | 112° |
| 2026-05-06 11:27 | 52.23210 | 4.18672 | 10925 ft | 297 kts | 112° |
| 2026-05-06 11:27 | 52.22382 | 4.21769 | 10956 ft | 296 kts | 112° |
| 2026-05-06 11:27 | 52.21560 | 4.24848 | 10860 ft | 289 kts | 112° |
| 2026-05-06 11:27 | 52.20772 | 4.27798 | 10329 ft | 283 kts | 112° |
| 2026-05-06 11:28 | 52.20008 | 4.30638 | 9731 ft | 265 kts | 112° |
| 2026-05-06 11:28 | 52.19266 | 4.33350 | 8744 ft | 260 kts | 112° |
| 2026-05-06 11:28 | 52.18526 | 4.36008 | 7730 ft | 254 kts | 112° |
| 2026-05-06 11:28 | 52.18039 | 4.38657 | 7138 ft | 243 kts | 89° |
| 2026-05-06 11:29 | 52.18119 | 4.41453 | 6888 ft | 241 kts | 83° |
| 2026-05-06 11:29 | 52.18275 | 4.44170 | 6877 ft | 238 kts | 82° |
| 2026-05-06 11:29 | 52.18489 | 4.46704 | 6297 ft | 223 kts | 68° |
| 2026-05-06 11:29 | 52.19290 | 4.48765 | 5553 ft | 212 kts | 51° |
| 2026-05-06 11:30 | 52.20054 | 4.50741 | 4920 ft | 204 kts | 58° |
| 2026-05-06 11:30 | 52.20767 | 4.52666 | 4259 ft | 198 kts | 56° |
| 2026-05-06 11:30 | 52.21487 | 4.54529 | 3578 ft | 193 kts | 56° |
| 2026-05-06 11:30 | 52.22184 | 4.56334 | 3076 ft | 181 kts | 56° |
| 2026-05-06 11:31 | 52.22833 | 4.58013 | 2594 ft | 172 kts | 55° |
| 2026-05-06 11:31 | 52.23450 | 4.59608 | 2215 ft | 160 kts | 55° |
| 2026-05-06 11:31 | 52.24030 | 4.61108 | 1838 ft | 151 kts | 55° |
| 2026-05-06 11:31 | 52.24565 | 4.62492 | 1633 ft | 134 kts | 55° |
| 2026-05-06 11:32 | 52.25042 | 4.63728 | 1495 ft | 122 kts | 56° |
| 2026-05-06 11:32 | 52.25485 | 4.64874 | 1343 ft | 119 kts | 56° |
| 2026-05-06 11:32 | 52.25898 | 4.66024 | 1083 ft | 118 kts | 62° |
| 2026-05-06 11:32 | 52.26141 | 4.67312 | 874 ft | 120 kts | 70° |
| 2026-05-06 11:33 | 52.26328 | 4.68647 | 745 ft | 120 kts | 72° |
| 2026-05-06 11:33 | 52.26500 | 4.70003 | 688 ft | 120 kts | 78° |
| 2026-05-06 11:33 | 52.26649 | 4.71355 | 560 ft | 121 kts | 72° |
| 2026-05-06 11:33 | 52.26919 | 4.72623 | 617 ft | 119 kts | 61° |
| 2026-05-06 11:34 | 52.27357 | 4.73757 | 535 ft | 116 kts | 58° |
| 2026-05-06 11:34 | 52.27820 | 4.74865 | 434 ft | 115 kts | 49° |
| 2026-05-06 11:34 | 52.28335 | 4.75866 | 380 ft | 116 kts | 48° |
| 2026-05-06 11:34 | 52.28936 | 4.76746 | 262 ft | 116 kts | 47° |
| 2026-05-06 11:35 | 52.29535 | 4.77651 | 128 ft | 117 kts | 37° |
| 2026-05-06 11:35 | 52.30149 | 4.78515 | 1 ft | 112 kts | 35° |
| 2026-05-06 11:35 | 52.30622 | 4.79188 | -2 ft | 60 kts | 37° |
| 2026-05-06 11:35 | 52.30842 | 4.79504 | -2 ft | 35 kts | 43° |
| 2026-05-06 11:36 | 52.30895 | 4.79631 | -2 ft | 9 kts | 133° |
| 2026-05-06 11:36 | 52.30846 | 4.79722 | -2 ft | 12 kts | 130° |
| 2026-05-06 11:36 | 52.30836 | 4.79841 | -2 ft | 12 kts | 46° |
| 2026-05-06 11:36 | 52.30908 | 4.79943 | -2 ft | 15 kts | 39° |
| 2026-05-06 11:37 | 52.30993 | 4.80064 | -2 ft | 17 kts | 41° |
| 2026-05-06 11:37 | 52.31065 | 4.80206 | -2 ft | 14 kts | 96° |
| 2026-05-06 11:37 | 52.31059 | 4.80330 | -2 ft | 12 kts | 39° |
| 2026-05-06 11:37 | 52.31093 | 4.80310 | -2 ft | 3 kts | 310° |
| 2026-05-06 11:38 | 52.31095 | 4.80305 | -2 ft | 0 kts | 310° |